El Plumerillo, Argentina
Current Conditions -  °F | °C
As of 5:00 PM on Thursday 18 Dec 2014 (Local Time) from SAME Reporting Station
Clear Clear  
Wind Chill: 90°   Ceiling: Unl
Heat Index: 90°   Visibility: 6mi
Dew Point: 48°   Wind: 9mph
Humidity: 24%   Direction: 50°NE
Pressure: 29.74"   Gusts: NA
Location:  32.83°S, 68.78°W
Report Text: SAME 182000Z 05008KT CAVOK 32/09 Q1007
Loading
Personal Weather Stations






























Interactive Weather Map New forecast layout! Learn more

10-Day Weather Forecast

Advertisements
Track Severe Weather on mobile